METAR Data
IDs: Format: Raw Decoded Include TAF

Data at: 2118 UTC 18 Apr 2021

KPGD 182053Z 23014G20KT 10SM CLR 31/20 A2988 RMK AO2 SLP117 T03060200 58016
KPGD 181953Z 23015KT 10SM CLR 31/19 A2989 RMK AO2 SLP121 T03110189
KPGD 181853Z 23013KT 10SM CLR 31/20 A2992 RMK AO2 SLP129 T03110200
KPGD 181753Z 24015G20KT 10SM SCT035 32/21 A2993 RMK AO2 SLP133 T03170206 10317 20228 58015
KPGD 181653Z 21010G17KT 10SM SCT032 31/21 A2994 RMK AO2 SLP137 T03110211
KPGD 181553Z 22009KT 10SM FEW032 30/21 A2996 RMK AO2 SLP144 T03000211
KPGD 181453Z 24008KT 10SM SCT026 BKN038 28/22 A2997 RMK AO2 SLP148 T02830217 53006
KPGD 181353Z 20010KT 10SM SCT020 27/22 A2996 RMK AO2 SLP143 T02720222
KPGD 181253Z 17007KT 10SM CLR 25/23 A2996 RMK AO2 SLP145 T02500228
KPGD 181153Z 18005KT 6SM BR CLR 23/22 A2996 RMK AO2 SLP142 T02280222 10228 20183 53010
KPGD 181053Z 17004KT 5SM BR CLR 21/21 A2994 RMK AO2 SLP137 T02110206
KPGD 180953Z 17004KT 10SM CLR 21/21 A2993 RMK AO2 SLP133 T02110206
KPGD 180922Z AUTO 18005KT 4SM BR SCT011 21/20 A2993 RMK AO2 T02060200
KPGD 180909Z AUTO 14004KT 1 3/4SM BR SCT010 SCT050 20/19 A2992 RMK AO2 VIS 1V5 T02000194
KPGD 180853Z AUTO 17004KT 8SM FEW010 BKN050 21/20 A2993 RMK AO2 SLP133 T02060200 56005
KPGD 180840Z AUTO 17004KT 2SM BR BKN009 BKN050 OVC060 20/19 A2992 RMK AO2 VIS 1/2V5 T02000194
KPGD 180835Z AUTO 18004KT 1/2SM FG BKN009 OVC050 20/19 A2993 RMK AO2 T02000194
KPGD 180826Z AUTO 00000KT 1SM BR VV009 19/19 A2993 RMK AO2 T01940189
KPGD 180803Z AUTO 00000KT 1/4SM FG VV009 19/19 A2993 RMK AO2 T01940189
KPGD 180753Z AUTO 00000KT 1/4SM FG VV010 19/18 A2993 RMK AO2 SLP134 T01890183
KPGD 180712Z AUTO 00000KT 1/4SM FG VV012 20/19 A2993 RMK AO2 T02000194
KPGD 180703Z AUTO 17003KT 1/2SM FG VV013 20/20 A2993 RMK AO2 T02000200
KPGD 180653Z AUTO 00000KT 1/4SM FG VV013 21/20 A2993 RMK AO2 SLP134 T02060200
KPGD 180624Z AUTO 16003KT 1/2SM FG VV013 20/19 A2993 RMK AO2 T02000194
KPGD 180608Z AUTO 16003KT 1/4SM FG VV014 21/20 A2994 RMK AO2 T02060200
KPGD 180601Z AUTO 16003KT 1/4SM FG VV015 20/19 A2994 RMK AO2 T02000194
KPGD 180553Z AUTO 00000KT 1 3/4SM BR BKN016 20/19 A2994 RMK AO2 SLP138 T02000194 10261 20194 51004
KPGD 180539Z AUTO 00000KT 1/2SM FG VV017 20/19 A2994 RMK AO2 T02000194
KPGD 180523Z AUTO 00000KT 1/4SM FG FEW014 BKN021 21/20 A2994 RMK AO2 T02110200
KPGD 180513Z AUTO 00000KT 3/4SM BR FEW029 21/20 A2994 RMK AO2 T02110200
KPGD 180506Z AUTO 00000KT 2SM BR FEW025 21/20 A2994 RMK AO2 T02060200
KPGD 180453Z AUTO 00000KT 3/4SM BR CLR 21/20 A2994 RMK AO2 SLP137 T02060200 403000194
KPGD 180442Z AUTO 00000KT 2 1/2SM BR CLR 20/19 A2993 RMK AO2 T02000189
KPGD 180353Z AUTO 16003KT 7SM CLR 21/20 A2993 RMK AO2 SLP134 T02110200
KPGD 180253Z AUTO 23004KT 10SM CLR 24/22 A2992 RMK AO2 SLP130 T02440217 53007
KPGD 180153Z AUTO 24006KT 10SM CLR 24/22 A2991 RMK AO2 SLP126 T02440217
KPGD 180053Z AUTO 26004KT 10SM CLR 25/21 A2991 RMK AO2 SLP126 T02500211
KPGD 172353Z 24007KT 10SM CLR 26/21 A2990 RMK AO2 SLP123 T02610206 10300 20261 53009
KPGD 172253Z 25010KT 10SM FEW032 27/21 A2988 RMK AO2 SLP118 T02720206
KPGD 172153Z 24013KT 10SM CLR 28/21 A2988 RMK AO2 SLP116 T02830206
KPGD 172053Z 24012KT 10SM SCT028 29/21 A2987 RMK AO2 SLP114 T02890211 56017
KPGD 171953Z 25012KT 10SM SCT028 29/21 A2988 RMK AO2 SLP116 T02940206
KPGD 171853Z 23013KT 10SM SCT028 30/21 A2989 RMK AO2 SLP121 T03000211
KPGD 171753Z 25013KT 10SM SCT025 29/21 A2992 RMK AO2 SLP131 T02940211 10300 20228 58003
KPGD 171653Z 24013KT 10SM FEW025 29/21 A2993 RMK AO2 SLP134 T02890211
KPGD 171553Z 23015G21KT 10SM FEW023 29/21 A2993 RMK AO2 SLP135 T02890206
KPGD 171453Z 22013KT 10SM SCT019 28/22 A2993 RMK AO2 SLP134 T02830217 50011
KPGD 171432Z 23014KT 10SM FEW018 SCT025 27/22 A2993 RMK AO2 T02720217
KPGD 171353Z 24011KT 9SM SCT016 BKN023 27/22 A2994 RMK AO2 SLP136 T02670222
KPGD 171253Z 21007KT 5SM HZ SCT017 25/22 A2991 RMK AO2 SLP129 T02500222
KPGD 171221Z 20005KT 3SM BR CLR 24/23 A2991 RMK AO2 T02390228
KPGD 171153Z 18005KT 2SM BR CLR 23/22 A2990 RMK AO2 SLP123 T02280222 10228 20211 53013
KPGD 171136Z 20004KT 2SM BR CLR 22/21 A2989 RMK AO2 T02220211
KPGD 171053Z 18006KT 3SM BR CLR 22/21 A2988 RMK AO2 SLP116 T02220211
KPGD 170953Z 19004KT 3SM BR CLR 22/21 A2988 RMK AO2 SLP116 T02170211